sensor_id;sensor_type;location;lat;lon;timestamp;pressure;altitude;pressure_sealevel;temperature;humidity
40285;BME280;25997;50.214;19.354;2022-08-01T00:00:31;97634.34;;;14.95;69.06
40285;BME280;25997;50.214;19.354;2022-08-01T00:03:34;97636.09;;;14.90;69.17
40285;BME280;25997;50.214;19.354;2022-08-01T00:06:37;97634.31;;;14.94;69.42
40285;BME280;25997;50.214;19.354;2022-08-01T00:09:39;97627.28;;;14.93;69.45
40285;BME280;25997;50.214;19.354;2022-08-01T00:12:42;97633.47;;;14.95;69.14
40285;BME280;25997;50.214;19.354;2022-08-01T00:15:47;97637.84;;;14.90;69.36
40285;BME280;25997;50.214;19.354;2022-08-01T00:18:49;97629.00;;;14.85;69.13
40285;BME280;25997;50.214;19.354;2022-08-01T00:21:52;97624.59;;;14.82;69.04
40285;BME280;25997;50.214;19.354;2022-08-01T00:24:55;97623.69;;;14.79;69.16
40285;BME280;25997;50.214;19.354;2022-08-01T00:27:57;97627.19;;;14.70;69.17
40285;BME280;25997;50.214;19.354;2022-08-01T00:31:01;97628.91;;;14.61;69.75
40285;BME280;25997;50.214;19.354;2022-08-01T00:34:04;97630.66;;;14.56;69.38
40285;BME280;25997;50.214;19.354;2022-08-01T00:37:06;97616.56;;;14.57;69.23
40285;BME280;25997;50.214;19.354;2022-08-01T00:40:09;97621.84;;;14.52;69.42
40285;BME280;25997;50.214;19.354;2022-08-01T00:43:12;97619.19;;;14.54;69.48
40285;BME280;25997;50.214;19.354;2022-08-01T00:46:16;97625.38;;;14.54;69.32
40285;BME280;25997;50.214;19.354;2022-08-01T00:49:18;97618.34;;;14.53;69.08
40285;BME280;25997;50.214;19.354;2022-08-01T00:52:21;97623.63;;;14.53;69.22
40285;BME280;25997;50.214;19.354;2022-08-01T00:55:24;97620.97;;;14.53;69.25
40285;BME280;25997;50.214;19.354;2022-08-01T00:58:26;97619.19;;;14.49;69.43
40285;BME280;25997;50.214;19.354;2022-08-01T01:01:33;97625.34;;;14.51;69.10
40285;BME280;25997;50.214;19.354;2022-08-01T01:04:36;97613.00;;;14.46;69.32
40285;BME280;25997;50.214;19.354;2022-08-01T01:07:44;97619.16;;;14.45;69.19
40285;BME280;25997;50.214;19.354;2022-08-01T01:10:54;97613.84;;;14.34;69.03
40285;BME280;25997;50.214;19.354;2022-08-01T01:14:01;97616.47;;;14.29;69.35
40285;BME280;25997;50.214;19.354;2022-08-01T01:17:07;97614.66;;;14.22;69.14
40285;BME280;25997;50.214;19.354;2022-08-01T01:20:12;97618.16;;;14.17;69.51
40285;BME280;25997;50.214;19.354;2022-08-01T01:23:28;97615.53;;;14.15;69.90
40285;BME280;25997;50.214;19.354;2022-08-01T01:26:40;97611.97;;;14.13;69.91
40285;BME280;25997;50.214;19.354;2022-08-01T01:29:50;97610.25;;;14.18;69.87
40285;BME280;25997;50.214;19.354;2022-08-01T01:32:55;97613.78;;;14.20;69.46
40285;BME280;25997;50.214;19.354;2022-08-01T01:36:04;97618.19;;;14.24;69.44
40285;BME280;25997;50.214;19.354;2022-08-01T01:39:08;97612.91;;;14.23;69.22
40285;BME280;25997;50.214;19.354;2022-08-01T01:42:10;97612.03;;;14.19;69.37
40285;BME280;25997;50.214;19.354;2022-08-01T01:45:15;97619.91;;;14.10;69.38
40285;BME280;25997;50.214;19.354;2022-08-01T01:48:19;97613.72;;;14.05;69.67
40285;BME280;25997;50.214;19.354;2022-08-01T01:51:25;97617.22;;;14.07;69.43
40285;BME280;25997;50.214;19.354;2022-08-01T01:54:29;97612.84;;;14.06;69.15
40285;BME280;25997;50.214;19.354;2022-08-01T01:57:36;97615.47;;;14.03;69.27
40285;BME280;25997;50.214;19.354;2022-08-01T02:00:42;97618.09;;;14.03;68.90
40285;BME280;25997;50.214;19.354;2022-08-01T02:03:47;97615.47;;;14.03;68.96
40285;BME280;25997;50.214;19.354;2022-08-01T02:06:51;97611.94;;;14.03;68.91
40285;BME280;25997;50.214;19.354;2022-08-01T02:09:55;97614.59;;;14.04;68.98
40285;BME280;25997;50.214;19.354;2022-08-01T02:12:59;97602.28;;;14.06;68.78
40285;BME280;25997;50.214;19.354;2022-08-01T02:16:05;97616.34;;;14.07;68.92
40285;BME280;25997;50.214;19.354;2022-08-01T02:19:09;97607.56;;;14.08;68.83
40285;BME280;25997;50.214;19.354;2022-08-01T02:22:18;97615.50;;;14.12;68.61
40285;BME280;25997;50.214;19.354;2022-08-01T02:25:24;97610.22;;;14.12;68.71
40285;BME280;25997;50.214;19.354;2022-08-01T02:28:31;97619.03;;;14.13;68.42
40285;BME280;25997;50.214;19.354;2022-08-01T02:31:39;97612.88;;;14.11;68.35
40285;BME280;25997;50.214;19.354;2022-08-01T02:34:47;97615.50;;;14.14;68.29
40285;BME280;25997;50.214;19.354;2022-08-01T02:37:51;97613.75;;;14.16;67.98
40285;BME280;25997;50.214;19.354;2022-08-01T02:40:56;97611.97;;;14.13;68.23
40285;BME280;25997;50.214;19.354;2022-08-01T02:44:03;97608.47;;;14.16;68.02
40285;BME280;25997;50.214;19.354;2022-08-01T02:47:08;97617.28;;;14.15;68.22
40285;BME280;25997;50.214;19.354;2022-08-01T02:50:13;97606.72;;;14.15;68.05
40285;BME280;25997;50.214;19.354;2022-08-01T02:53:19;97605.81;;;14.16;68.15
40285;BME280;25997;50.214;19.354;2022-08-01T02:56:24;97606.72;;;14.18;68.27
40285;BME280;25997;50.214;19.354;2022-08-01T02:59:37;97610.25;;;14.17;67.92
40285;BME280;25997;50.214;19.354;2022-08-01T03:02:42;97614.63;;;14.16;68.04
40285;BME280;25997;50.214;19.354;2022-08-01T03:05:46;97612.88;;;14.14;67.67
40285;BME280;25997;50.214;19.354;2022-08-01T03:08:50;97622.53;;;14.12;67.77
40285;BME280;25997;50.214;19.354;2022-08-01T03:11:54;97616.38;;;14.08;67.84
40285;BME280;25997;50.214;19.354;2022-08-01T03:14:58;97615.50;;;14.06;68.05
40285;BME280;25997;50.214;19.354;2022-08-01T03:18:06;97611.09;;;14.10;67.87
40285;BME280;25997;50.214;19.354;2022-08-01T03:21:10;97617.25;;;14.12;67.93
40285;BME280;25997;50.214;19.354;2022-08-01T03:24:14;97619.91;;;14.10;67.64
40285;BME280;25997;50.214;19.354;2022-08-01T03:27:19;97628.69;;;14.09;67.67
40285;BME280;25997;50.214;19.354;2022-08-01T03:30:23;97622.53;;;14.04;67.49
40285;BME280;25997;50.214;19.354;2022-08-01T03:33:28;97627.69;;;13.92;67.76
40285;BME280;25997;50.214;19.354;2022-08-01T03:36:32;97627.63;;;13.83;68.08
40285;BME280;25997;50.214;19.354;2022-08-01T03:39:41;97615.28;;;13.81;68.22
40285;BME280;25997;50.214;19.354;2022-08-01T03:42:48;97622.34;;;13.82;68.31
40285;BME280;25997;50.214;19.354;2022-08-01T03:45:53;97627.63;;;13.83;68.36
40285;BME280;25997;50.214;19.354;2022-08-01T03:49:00;97623.25;;;13.90;68.42
40285;BME280;25997;50.214;19.354;2022-08-01T03:52:07;97637.41;;;13.96;68.46
40285;BME280;25997;50.214;19.354;2022-08-01T03:55:11;97630.41;;;14.03;68.42
40285;BME280;25997;50.214;19.354;2022-08-01T03:58:15;97645.38;;;14.05;68.58
40285;BME280;25997;50.214;19.354;2022-08-01T04:01:18;97637.44;;;14.02;68.50
40285;BME280;25997;50.214;19.354;2022-08-01T04:04:23;97647.09;;;14.00;68.74
40285;BME280;25997;50.214;19.354;2022-08-01T04:07:27;97649.78;;;14.03;68.82
40285;BME280;25997;50.214;19.354;2022-08-01T04:10:30;97649.78;;;14.03;68.80
40285;BME280;25997;50.214;19.354;2022-08-01T04:13:33;97652.41;;;14.02;68.66
40285;BME280;25997;50.214;19.354;2022-08-01T04:16:35;97648.03;;;14.04;68.65
40285;BME280;25997;50.214;19.354;2022-08-01T04:19:41;97651.53;;;14.03;68.67
40285;BME280;25997;50.214;19.354;2022-08-01T04:22:43;97650.66;;;14.04;68.84
40285;BME280;25997;50.214;19.354;2022-08-01T04:25:47;97654.22;;;14.13;68.64
40285;BME280;25997;50.214;19.354;2022-08-01T04:28:52;97645.47;;;14.19;68.38
40285;BME280;25997;50.214;19.354;2022-08-01T04:31:56;97646.38;;;14.27;68.31
40285;BME280;25997;50.214;19.354;2022-08-01T04:35:06;97640.25;;;14.31;67.91
40285;BME280;25997;50.214;19.354;2022-08-01T04:38:10;97653.44;;;14.29;67.96
40285;BME280;25997;50.214;19.354;2022-08-01T04:41:15;97647.28;;;14.33;68.11
40285;BME280;25997;50.214;19.354;2022-08-01T04:44:18;97640.28;;;14.43;67.90
40285;BME280;25997;50.214;19.354;2022-08-01T04:47:21;97643.00;;;14.58;67.79
40285;BME280;25997;50.214;19.354;2022-08-01T04:50:26;97644.78;;;14.65;67.49
40285;BME280;25997;50.214;19.354;2022-08-01T04:53:29;97646.59;;;14.71;67.78
40285;BME280;25997;50.214;19.354;2022-08-01T04:56:33;97646.59;;;14.75;67.61
40285;BME280;25997;50.214;19.354;2022-08-01T04:59:37;97635.19;;;14.84;67.64
40285;BME280;25997;50.214;19.354;2022-08-01T05:02:43;97638.75;;;14.99;67.61
40285;BME280;25997;50.214;19.354;2022-08-01T05:05:48;97651.13;;;15.07;67.67
40285;BME280;25997;50.214;19.354;2022-08-01T05:08:51;97656.38;;;15.11;67.52
40285;BME280;25997;50.214;19.354;2022-08-01T05:11:54;97655.53;;;15.17;67.71
40285;BME280;25997;50.214;19.354;2022-08-01T05:14:59;97646.72;;;15.24;67.57
40285;BME280;25997;50.214;19.354;2022-08-01T05:18:03;97649.34;;;15.27;67.53
40285;BME280;25997;50.214;19.354;2022-08-01T05:21:07;97654.66;;;15.31;67.28
40285;BME280;25997;50.214;19.354;2022-08-01T05:24:10;97650.25;;;15.27;67.08
40285;BME280;25997;50.214;19.354;2022-08-01T05:27:13;97647.63;;;15.24;67.48
40285;BME280;25997;50.214;19.354;2022-08-01T05:30:16;97650.28;;;15.29;67.77
40285;BME280;25997;50.214;19.354;2022-08-01T05:33:19;97652.91;;;15.32;67.92
40285;BME280;25997;50.214;19.354;2022-08-01T05:36:24;97649.38;;;15.24;67.88
40285;BME280;25997;50.214;19.354;2022-08-01T05:39:26;97646.72;;;15.18;68.29
40285;BME280;25997;50.214;19.354;2022-08-01T05:42:29;97637.03;;;15.29;67.97
40285;BME280;25997;50.214;19.354;2022-08-01T05:45:32;97652.03;;;15.40;68.05
40285;BME280;25997;50.214;19.354;2022-08-01T05:48:34;97648.50;;;15.47;67.96
40285;BME280;25997;50.214;19.354;2022-08-01T05:51:38;97644.09;;;15.60;68.12
40285;BME280;25997;50.214;19.354;2022-08-01T05:54:41;97647.63;;;15.75;67.65
40285;BME280;25997;50.214;19.354;2022-08-01T05:57:43;97641.44;;;15.87;67.61
40285;BME280;25997;50.214;19.354;2022-08-01T06:00:46;97653.81;;;16.02;67.75
40285;BME280;25997;50.214;19.354;2022-08-01T06:03:48;97652.00;;;16.11;67.59
40285;BME280;25997;50.214;19.354;2022-08-01T06:06:52;97661.69;;;16.23;66.94
40285;BME280;25997;50.214;19.354;2022-08-01T06:09:55;97664.31;;;16.39;67.17
40285;BME280;25997;50.214;19.354;2022-08-01T06:12:57;97660.72;;;16.60;66.77
40285;BME280;25997;50.214;19.354;2022-08-01T06:16:04;97658.03;;;16.71;66.27
40285;BME280;25997;50.214;19.354;2022-08-01T06:19:07;97661.47;;;16.88;65.95
40285;BME280;25997;50.214;19.354;2022-08-01T06:22:11;97651.72;;;16.90;65.80
40285;BME280;25997;50.214;19.354;2022-08-01T06:25:13;97655.22;;;16.98;65.22
40285;BME280;25997;50.214;19.354;2022-08-01T06:28:16;97656.00;;;17.13;65.14
40285;BME280;25997;50.214;19.354;2022-08-01T06:31:18;97659.53;;;17.17;64.64
40285;BME280;25997;50.214;19.354;2022-08-01T06:34:21;97665.66;;;17.33;64.85
40285;BME280;25997;50.214;19.354;2022-08-01T06:37:28;97660.22;;;17.51;64.73
40285;BME280;25997;50.214;19.354;2022-08-01T06:40:31;97663.75;;;17.51;64.84
40285;BME280;25997;50.214;19.354;2022-08-01T06:43:34;97675.16;;;17.62;65.02
40285;BME280;25997;50.214;19.354;2022-08-01T06:46:36;97676.88;;;17.71;65.02
40285;BME280;25997;50.214;19.354;2022-08-01T06:49:39;97671.44;;;17.86;64.58
40285;BME280;25997;50.214;19.354;2022-08-01T06:52:43;97669.63;;;17.91;64.52
40285;BME280;25997;50.214;19.354;2022-08-01T06:55:45;97683.66;;;18.07;64.31
40285;BME280;25997;50.214;19.354;2022-08-01T06:58:49;97683.50;;;18.26;63.88
40285;BME280;25997;50.214;19.354;2022-08-01T07:01:51;97682.41;;;18.42;62.73
40285;BME280;25997;50.214;19.354;2022-08-01T07:04:54;97684.94;;;18.54;62.63
40285;BME280;25997;50.214;19.354;2022-08-01T07:08:00;97679.44;;;18.71;61.78
40285;BME280;25997;50.214;19.354;2022-08-01T07:11:02;97672.97;;;18.93;62.46
40285;BME280;25997;50.214;19.354;2022-08-01T07:14:05;97670.19;;;19.01;60.86
40285;BME280;25997;50.214;19.354;2022-08-01T07:17:07;97677.28;;;19.00;60.83
40285;BME280;25997;50.214;19.354;2022-08-01T07:20:11;97680.56;;;19.22;59.91
40285;BME280;25997;50.214;19.354;2022-08-01T07:23:16;97679.56;;;19.30;59.54
40285;BME280;25997;50.214;19.354;2022-08-01T07:26:19;97684.69;;;19.46;60.21
40285;BME280;25997;50.214;19.354;2022-08-01T07:29:23;97678.34;;;19.53;59.58
40285;BME280;25997;50.214;19.354;2022-08-01T07:32:25;97683.50;;;19.63;59.51
40285;BME280;25997;50.214;19.354;2022-08-01T07:35:30;97676.25;;;19.73;59.39
40285;BME280;25997;50.214;19.354;2022-08-01T07:38:33;97673.41;;;19.83;59.34
40285;BME280;25997;50.214;19.354;2022-08-01T07:41:36;97668.69;;;19.99;57.95
40285;BME280;25997;50.214;19.354;2022-08-01T07:44:39;97677.50;;;20.05;56.85
40285;BME280;25997;50.214;19.354;2022-08-01T07:47:42;97677.53;;;20.02;56.24
40285;BME280;25997;50.214;19.354;2022-08-01T07:50:45;97668.97;;;19.84;55.77
40285;BME280;25997;50.214;19.354;2022-08-01T07:53:49;97676.78;;;19.94;55.68
40285;BME280;25997;50.214;19.354;2022-08-01T07:56:51;97677.53;;;20.02;55.23
40285;BME280;25997;50.214;19.354;2022-08-01T07:59:54;97673.81;;;20.13;55.75
40285;BME280;25997;50.214;19.354;2022-08-01T08:02:56;97663.69;;;20.31;55.41
40285;BME280;25997;50.214;19.354;2022-08-01T08:06:00;97671.38;;;20.48;53.87
40285;BME280;25997;50.214;19.354;2022-08-01T08:09:04;97667.69;;;20.55;53.15
40285;BME280;25997;50.214;19.354;2022-08-01T08:12:07;97674.84;;;20.51;53.29
40285;BME280;25997;50.214;19.354;2022-08-01T08:15:10;97666.81;;;20.54;52.85
40285;BME280;25997;50.214;19.354;2022-08-01T08:18:12;97670.88;;;20.73;52.28
40285;BME280;25997;50.214;19.354;2022-08-01T08:21:15;97667.28;;;20.76;51.19
40285;BME280;25997;50.214;19.354;2022-08-01T08:24:19;97663.25;;;20.98;51.22
40285;BME280;25997;50.214;19.354;2022-08-01T08:27:21;97668.78;;;21.30;51.44
40285;BME280;25997;50.214;19.354;2022-08-01T08:30:24;97662.88;;;21.55;49.40
40285;BME280;25997;50.214;19.354;2022-08-01T08:33:27;97676.59;;;21.76;49.06
40285;BME280;25997;50.214;19.354;2022-08-01T08:36:29;97669.91;;;21.94;46.63
40285;BME280;25997;50.214;19.354;2022-08-01T08:39:34;97666.81;;;22.12;46.96
40285;BME280;25997;50.214;19.354;2022-08-01T08:42:39;97667.94;;;22.37;46.65
40285;BME280;25997;50.214;19.354;2022-08-01T08:45:43;97666.78;;;22.46;46.66
40285;BME280;25997;50.214;19.354;2022-08-01T08:48:46;97671.81;;;22.59;45.30
40285;BME280;25997;50.214;19.354;2022-08-01T08:51:50;97669.00;;;22.64;43.79
40285;BME280;25997;50.214;19.354;2022-08-01T08:54:56;97669.75;;;23.00;44.82
40285;BME280;25997;50.214;19.354;2022-08-01T08:58:00;97675.81;;;23.63;44.99
40285;BME280;25997;50.214;19.354;2022-08-01T09:01:07;97670.22;;;23.98;43.39
40285;BME280;25997;50.214;19.354;2022-08-01T09:04:11;97677.94;;;24.35;42.75
40285;BME280;25997;50.214;19.354;2022-08-01T09:07:14;97679.13;;;24.51;41.11
40285;BME280;25997;50.214;19.354;2022-08-01T09:10:18;97683.00;;;24.69;40.80
40285;BME280;25997;50.214;19.354;2022-08-01T09:13:20;97677.09;;;24.82;41.80
40285;BME280;25997;50.214;19.354;2022-08-01T09:16:23;97676.66;;;24.45;41.51
40285;BME280;25997;50.214;19.354;2022-08-01T09:19:34;97674.78;;;24.49;40.26
40285;BME280;25997;50.214;19.354;2022-08-01T09:22:37;97681.00;;;24.74;41.95
40285;BME280;25997;50.214;19.354;2022-08-01T09:25:51;97671.31;;;24.94;40.57
40285;BME280;25997;50.214;19.354;2022-08-01T09:28:55;97676.88;;;25.13;41.97
40285;BME280;25997;50.214;19.354;2022-08-01T09:31:57;97679.44;;;25.16;41.73
40285;BME280;25997;50.214;19.354;2022-08-01T09:35:22;97677.28;;;25.26;40.28
40285;BME280;25997;50.214;19.354;2022-08-01T09:38:26;97680.22;;;25.20;42.41
40285;BME280;25997;50.214;19.354;2022-08-01T09:41:30;97678.06;;;25.04;41.36
40285;BME280;25997;50.214;19.354;2022-08-01T09:44:37;97690.94;;;24.96;39.61
40285;BME280;25997;50.214;19.354;2022-08-01T09:47:41;97693.56;;;24.73;40.46
40285;BME280;25997;50.214;19.354;2022-08-01T09:50:45;97687.25;;;24.50;39.81
40285;BME280;25997;50.214;19.354;2022-08-01T09:53:48;97692.56;;;24.51;40.21
40285;BME280;25997;50.214;19.354;2022-08-01T09:56:53;97688.69;;;24.60;40.96
40285;BME280;25997;50.214;19.354;2022-08-01T09:59:57;97693.06;;;24.62;40.08
40285;BME280;25997;50.214;19.354;2022-08-01T10:03:00;97695.69;;;24.39;40.77
40285;BME280;25997;50.214;19.354;2022-08-01T10:06:19;97696.88;;;24.29;38.99
40285;BME280;25997;50.214;19.354;2022-08-01T10:09:26;97699.41;;;24.35;40.04
40285;BME280;25997;50.214;19.354;2022-08-01T10:12:32;97697.41;;;24.40;40.65
40285;BME280;25997;50.214;19.354;2022-08-01T10:15:35;97696.94;;;24.54;41.58
40285;BME280;25997;50.214;19.354;2022-08-01T10:18:40;97691.72;;;24.49;41.46
40285;BME280;25997;50.214;19.354;2022-08-01T10:21:44;97693.59;;;24.47;41.25
40285;BME280;25997;50.214;19.354;2022-08-01T10:24:54;97691.78;;;24.48;40.81
40285;BME280;25997;50.214;19.354;2022-08-01T10:27:59;97695.22;;;24.25;41.45
40285;BME280;25997;50.214;19.354;2022-08-01T10:31:04;97692.25;;;24.34;42.24
40285;BME280;25997;50.214;19.354;2022-08-01T10:34:07;97694.03;;;24.33;42.04
40285;BME280;25997;50.214;19.354;2022-08-01T10:37:12;97693.28;;;24.56;42.59
40285;BME280;25997;50.214;19.354;2022-08-01T10:40:15;97695.16;;;24.28;41.84
40285;BME280;25997;50.214;19.354;2022-08-01T10:43:19;97692.47;;;24.28;42.26
40285;BME280;25997;50.214;19.354;2022-08-01T10:46:22;97689.63;;;24.32;42.93
40285;BME280;25997;50.214;19.354;2022-08-01T10:49:28;97700.00;;;24.17;42.52
40285;BME280;25997;50.214;19.354;2022-08-01T10:52:32;97689.56;;;24.08;42.30
40285;BME280;25997;50.214;19.354;2022-08-01T10:55:49;97690.31;;;24.13;41.59
40285;BME280;25997;50.214;19.354;2022-08-01T10:59:01;97688.16;;;24.22;41.37
40285;BME280;25997;50.214;19.354;2022-08-01T11:02:04;97682.19;;;24.14;41.92
40285;BME280;25997;50.214;19.354;2022-08-01T11:05:12;97685.91;;;24.10;40.71
40285;BME280;25997;50.214;19.354;2022-08-01T11:08:21;97686.81;;;24.09;41.41
40285;BME280;25997;50.214;19.354;2022-08-01T11:11:24;97683.97;;;24.15;41.10
40285;BME280;25997;50.214;19.354;2022-08-01T11:14:29;97681.63;;;24.31;41.16
40285;BME280;25997;50.214;19.354;2022-08-01T11:17:33;97687.56;;;24.41;41.00
40285;BME280;25997;50.214;19.354;2022-08-01T11:20:36;97679.47;;;24.42;40.24
40285;BME280;25997;50.214;19.354;2022-08-01T11:23:47;97689.19;;;24.46;39.77
40285;BME280;25997;50.214;19.354;2022-08-01T11:30:29;97687.50;;;24.67;39.56
40285;BME280;25997;50.214;19.354;2022-08-01T11:33:48;97687.16;;;25.02;39.39
40285;BME280;25997;50.214;19.354;2022-08-01T11:36:50;97693.47;;;25.24;37.65
40285;BME280;25997;50.214;19.354;2022-08-01T11:40:18;97679.97;;;25.26;39.27
40285;BME280;25997;50.214;19.354;2022-08-01T11:43:21;97690.88;;;25.21;39.18
40285;BME280;25997;50.214;19.354;2022-08-01T11:47:00;97687.31;;;25.21;38.92
40285;BME280;25997;50.214;19.354;2022-08-01T11:50:04;97678.03;;;25.06;39.44
40285;BME280;25997;50.214;19.354;2022-08-01T11:53:07;97686.41;;;25.22;39.44
40285;BME280;25997;50.214;19.354;2022-08-01T11:56:10;97687.97;;;25.50;40.12
40285;BME280;25997;50.214;19.354;2022-08-01T11:59:13;97692.38;;;25.74;39.66
40285;BME280;25997;50.214;19.354;2022-08-01T12:02:20;97691.47;;;25.76;38.72
40285;BME280;25997;50.214;19.354;2022-08-01T12:05:23;97693.38;;;25.94;39.34
40285;BME280;25997;50.214;19.354;2022-08-01T12:08:25;97699.16;;;26.28;38.61
40285;BME280;25997;50.214;19.354;2022-08-01T12:11:28;97689.00;;;26.34;38.61
40285;BME280;25997;50.214;19.354;2022-08-01T12:14:31;97689.66;;;26.19;38.86
40285;BME280;25997;50.214;19.354;2022-08-01T12:17:36;97687.03;;;26.38;38.17
40285;BME280;25997;50.214;19.354;2022-08-01T12:20:41;97686.75;;;26.24;39.15
40285;BME280;25997;50.214;19.354;2022-08-01T12:23:45;97691.09;;;26.48;39.44
40285;BME280;25997;50.214;19.354;2022-08-01T12:26:47;97684.69;;;26.51;39.24
40285;BME280;25997;50.214;19.354;2022-08-01T12:29:50;97688.25;;;26.31;38.78
40285;BME280;25997;50.214;19.354;2022-08-01T12:32:54;97686.25;;;26.56;38.75
40285;BME280;25997;50.214;19.354;2022-08-01T12:35:57;97679.97;;;26.96;38.47
40285;BME280;25997;50.214;19.354;2022-08-01T12:39:00;97692.84;;;27.09;37.15
40285;BME280;25997;50.214;19.354;2022-08-01T12:42:06;97680.06;;;26.94;36.07
40285;BME280;25997;50.214;19.354;2022-08-01T12:45:13;97684.22;;;27.22;36.54
40285;BME280;25997;50.214;19.354;2022-08-01T12:48:18;97685.31;;;27.36;36.37
40285;BME280;25997;50.214;19.354;2022-08-01T12:51:21;97692.25;;;27.42;36.48
40285;BME280;25997;50.214;19.354;2022-08-01T12:54:24;97676.88;;;27.62;36.26
40285;BME280;25997;50.214;19.354;2022-08-01T12:57:27;97671.59;;;28.32;34.23
40285;BME280;25997;50.214;19.354;2022-08-01T13:00:29;97668.91;;;28.84;33.84
40285;BME280;25997;50.214;19.354;2022-08-01T13:03:34;97671.94;;;29.10;33.74
40285;BME280;25997;50.214;19.354;2022-08-01T13:06:37;97661.78;;;29.64;32.58
40285;BME280;25997;50.214;19.354;2022-08-01T13:09:49;97669.91;;;29.95;32.35
40285;BME280;25997;50.214;19.354;2022-08-01T13:12:53;97665.44;;;29.63;32.04
40285;BME280;25997;50.214;19.354;2022-08-01T13:16:08;97660.72;;;29.18;31.51
40285;BME280;25997;50.214;19.354;2022-08-01T13:19:13;97654.50;;;29.33;33.35
40285;BME280;25997;50.214;19.354;2022-08-01T13:22:15;97650.50;;;29.71;32.07
40285;BME280;25997;50.214;19.354;2022-08-01T13:25:18;97652.75;;;29.48;32.27
40285;BME280;25997;50.214;19.354;2022-08-01T13:28:24;97656.97;;;29.20;33.14
40285;BME280;25997;50.214;19.354;2022-08-01T13:31:32;97647.13;;;28.70;32.69
40285;BME280;25997;50.214;19.354;2022-08-01T13:34:36;97643.69;;;28.32;33.43
40285;BME280;25997;50.214;19.354;2022-08-01T13:37:42;97644.63;;;28.14;33.82
40285;BME280;25997;50.214;19.354;2022-08-01T13:40:57;97657.00;;;27.45;34.60
40285;BME280;25997;50.214;19.354;2022-08-01T13:44:00;97651.00;;;27.40;34.98
40285;BME280;25997;50.214;19.354;2022-08-01T13:47:03;97650.75;;;27.81;33.88
40285;BME280;25997;50.214;19.354;2022-08-01T13:50:08;97651.66;;;28.35;33.83
40285;BME280;25997;50.214;19.354;2022-08-01T13:53:11;97658.66;;;28.73;33.47
40285;BME280;25997;50.214;19.354;2022-08-01T13:56:14;97647.97;;;28.87;33.14
40285;BME280;25997;50.214;19.354;2022-08-01T13:59:18;97653.47;;;28.51;33.73
40285;BME280;25997;50.214;19.354;2022-08-01T14:02:20;97656.81;;;28.56;33.92
40285;BME280;25997;50.214;19.354;2022-08-01T14:05:25;97651.00;;;28.81;32.55
40285;BME280;25997;50.214;19.354;2022-08-01T14:08:27;97656.31;;;29.00;33.26
40285;BME280;25997;50.214;19.354;2022-08-01T14:11:30;97663.66;;;29.31;32.45
40285;BME280;25997;50.214;19.354;2022-08-01T14:14:33;97650.84;;;30.12;32.15
40285;BME280;25997;50.214;19.354;2022-08-01T14:17:36;97670.06;;;30.53;31.36
40285;BME280;25997;50.214;19.354;2022-08-01T14:20:40;97676.66;;;30.49;31.10
40285;BME280;25997;50.214;19.354;2022-08-01T14:23:45;97672.50;;;30.28;31.39
40285;BME280;25997;50.214;19.354;2022-08-01T14:26:48;97663.75;;;29.91;31.69
40285;BME280;25997;50.214;19.354;2022-08-01T14:29:51;97659.81;;;28.85;32.84
40285;BME280;25997;50.214;19.354;2022-08-01T14:32:53;97664.41;;;29.17;33.30
40285;BME280;25997;50.214;19.354;2022-08-01T14:35:59;97652.13;;;29.43;32.69
40285;BME280;25997;50.214;19.354;2022-08-01T14:39:05;97672.84;;;30.51;32.58
40285;BME280;25997;50.214;19.354;2022-08-01T14:42:10;97675.72;;;31.36;31.35
40285;BME280;25997;50.214;19.354;2022-08-01T14:45:17;97668.78;;;31.87;31.21
40285;BME280;25997;50.214;19.354;2022-08-01T14:48:19;97673.69;;;32.89;29.92
40285;BME280;25997;50.214;19.354;2022-08-01T14:51:23;97681.56;;;32.66;28.83
40285;BME280;25997;50.214;19.354;2022-08-01T14:54:26;97676.84;;;31.62;29.73
40285;BME280;25997;50.214;19.354;2022-08-01T14:57:32;97676.72;;;31.63;29.27
40285;BME280;25997;50.214;19.354;2022-08-01T15:00:35;97672.31;;;31.89;30.47
40285;BME280;25997;50.214;19.354;2022-08-01T15:03:38;97666.06;;;32.42;29.32
40285;BME280;25997;50.214;19.354;2022-08-01T15:06:43;97672.94;;;31.23;30.21
40285;BME280;25997;50.214;19.354;2022-08-01T15:09:46;97667.19;;;30.40;30.93
40285;BME280;25997;50.214;19.354;2022-08-01T15:12:48;97660.44;;;29.40;32.04
40285;BME280;25997;50.214;19.354;2022-08-01T15:15:51;97661.56;;;28.86;33.01
40285;BME280;25997;50.214;19.354;2022-08-01T15:18:53;97661.56;;;28.51;33.62
40285;BME280;25997;50.214;19.354;2022-08-01T15:21:58;97663.16;;;28.38;33.65
40285;BME280;25997;50.214;19.354;2022-08-01T15:25:03;97676.56;;;27.87;34.52
40285;BME280;25997;50.214;19.354;2022-08-01T15:28:08;97674.56;;;27.16;35.43
40285;BME280;25997;50.214;19.354;2022-08-01T15:31:12;97681.03;;;26.73;36.70
40285;BME280;25997;50.214;19.354;2022-08-01T15:34:15;97680.41;;;26.47;36.85
40285;BME280;25997;50.214;19.354;2022-08-01T15:37:19;97673.91;;;26.30;37.19
40285;BME280;25997;50.214;19.354;2022-08-01T15:40:22;97678.13;;;26.16;37.80
40285;BME280;25997;50.214;19.354;2022-08-01T15:43:28;97671.09;;;25.90;38.07
40285;BME280;25997;50.214;19.354;2022-08-01T15:46:32;97666.16;;;25.80;38.41
40285;BME280;25997;50.214;19.354;2022-08-01T15:49:36;97671.66;;;25.55;39.24
40285;BME280;25997;50.214;19.354;2022-08-01T15:52:40;97674.22;;;25.12;40.90
40285;BME280;25997;50.214;19.354;2022-08-01T15:55:43;97659.19;;;24.58;41.26
40285;BME280;25997;50.214;19.354;2022-08-01T15:58:46;97657.72;;;24.23;42.15
40285;BME280;25997;50.214;19.354;2022-08-01T16:01:49;97648.22;;;24.13;42.75
40285;BME280;25997;50.214;19.354;2022-08-01T16:04:52;97649.56;;;24.26;42.74
40285;BME280;25997;50.214;19.354;2022-08-01T16:07:56;97659.97;;;24.37;42.57